Time;durP1;ratioP1;P1;durP2;ratioP2;P2;SDS_P1;SDS_P2;PMS_P1;PMS_P2;Temp;Humidity;BMP_temperature;BMP_pressure;BME280_temperature;BME280_humidity;BME280_pressure;Samples;Min_cycle;Max_cycle;Signal;HPM_P1;HPM_P2
2022/07/17 00:01:22;;;;;;;36.35;33.33;;;;;;;18.92;100.00;101167.25;5015798;28;20049;-88
2022/07/17 00:03:50;;;;;;;37.72;35.03;;;;;;;19.09;100.00;101159.09;5017368;28;20057;-88
2022/07/17 00:06:25;;;;;;;35.97;33.30;;;;;;;19.14;100.00;101169.94;5015624;28;20049;-84
2022/07/17 00:08:53;;;;;;;39.65;36.45;;;;;;;19.12;100.00;101169.38;5016314;28;20065;-83
2022/07/17 00:11:32;;;;;;;40.45;37.30;;;;;;;19.13;100.00;101171.81;5016008;28;20050;-86
2022/07/17 00:13:59;;;;;;;39.05;36.05;;;;;;;18.76;100.00;101175.16;5017389;28;20128;-85
2022/07/17 00:16:26;;;;;;;39.67;36.55;;;;;;;18.86;100.00;101171.75;5016403;28;20057;-86
2022/07/17 00:19:02;;;;;;;36.35;33.05;;;;;;;18.95;100.00;101178.34;5027690;28;20050;-85
2022/07/17 00:21:31;;;;;;;35.33;32.53;;;;;;;18.80;100.00;101185.41;5003019;28;20041;-83
2022/07/17 00:24:12;;;;;;;37.15;34.08;;;;;;;18.68;100.00;101183.59;5016016;28;20478;-87
2022/07/17 00:26:53;;;;;;;33.67;31.27;;;;;;;18.64;100.00;101182.47;5018969;28;20050;-88
2022/07/17 00:29:26;;;;;;;42.13;38.92;;;;;;;18.59;100.00;101190.47;5009110;28;20060;-89
2022/07/17 00:32:07;;;;;;;39.83;36.70;;;;;;;18.57;100.00;101183.72;5014509;28;20060;-85
2022/07/17 00:34:38;;;;;;;39.72;36.75;;;;;;;18.96;100.00;101181.84;5018478;28;20057;-84
2022/07/17 00:37:14;;;;;;;33.45;30.58;;;;;;;18.23;100.00;101179.19;5014631;28;20050;-85
2022/07/17 00:39:49;;;;;;;37.38;34.58;;;;;;;18.90;100.00;101183.66;5016174;28;20054;-88
2022/07/17 00:42:18;;;;;;;39.30;36.45;;;;;;;18.94;100.00;101186.66;5014779;28;20525;-88
2022/07/17 00:45:04;;;;;;;35.97;33.00;;;;;;;18.60;100.00;101194.78;5029522;28;20042;-85
2022/07/17 00:47:50;;;;;;;35.55;32.58;;;;;;;18.95;100.00;101191.78;5018045;28;20053;-84
2022/07/17 00:50:40;;;;;;;35.88;32.95;;;;;;;18.69;100.00;101195.97;5017144;28;20060;-84
2022/07/17 00:53:16;;;;;;;34.47;31.58;;;;;;;18.26;100.00;101189.44;5018662;28;20050;-88
2022/07/17 00:55:51;;;;;;;31.60;29.02;;;;;;;18.58;100.00;101186.16;5018823;28;20046;-88
2022/07/17 00:58:24;;;;;;;36.30;33.50;;;;;;;18.77;100.00;101190.22;5018542;28;20049;-84
2022/07/17 01:00:56;;;;;;;33.03;30.48;;;;;;;18.80;100.00;101190.78;5015411;28;20064;-89
2022/07/17 01:03:30;;;;;;;;;;;;;;;18.74;100.00;101196.09;5013009;28;20059;-83
2022/07/17 01:05:57;;;;;;;33.03;30.65;;;;;;;18.56;100.00;101196.34;4999867;28;19925;-84
2022/07/17 01:08:39;;;;;;;34.30;31.08;;;;;;;18.81;100.00;101195.91;5019926;28;20106;-88
2022/07/17 01:11:09;;;;;;;35.85;33.13;;;;;;;18.46;100.00;101198.91;5018617;28;20046;-85
2022/07/17 01:13:42;;;;;;;40.25;37.35;;;;;;;18.66;100.00;101201.84;5026771;28;20046;-86
2022/07/17 01:16:11;;;;;;;;;;;;;;;18.66;100.00;101201.06;5021116;28;20046;-84
2022/07/17 01:18:44;;;;;;;35.80;32.78;;;;;;;18.33;100.00;101210.78;5019176;28;20381;-84
2022/07/17 01:21:38;;;;;;;34.15;31.33;;;;;;;18.61;100.00;101212.56;5020445;28;20058;-85
2022/07/17 01:24:22;;;;;;;37.17;34.00;;;;;;;18.52;100.00;101206.78;5020340;28;20045;-84
2022/07/17 01:26:55;;;;;;;30.92;28.30;;;;;;;18.59;100.00;101203.94;5021055;28;20058;-85
2022/07/17 01:29:24;;;;;;;30.65;28.25;;;;;;;18.54;100.00;101211.91;5036307;28;20049;-84
2022/07/17 01:31:51;;;;;;;32.30;29.67;;;;;;;18.43;100.00;101210.97;5034304;28;20466;-84
2022/07/17 01:34:24;;;;;;;36.05;33.45;;;;;;;18.44;100.00;101212.56;5024896;28;20495;-84
2022/07/17 01:37:00;;;;;;;37.97;35.08;;;;;;;18.44;100.00;101217.97;5017761;28;20042;-87
2022/07/17 01:42:11;;;;;;;33.72;30.83;;;;;;;18.42;100.00;101221.94;5022902;28;20058;-84
2022/07/17 01:44:46;;;;;;;36.92;33.88;;;;;;;18.31;100.00;101216.44;5019225;28;20045;-84
2022/07/17 01:47:20;;;;;;;33.42;30.52;;;;;;;17.96;100.00;101207.78;5009103;28;20430;-88
2022/07/17 01:49:50;;;;;;;32.38;29.88;;;;;;;17.28;100.00;101214.84;5011729;28;20045;-84
2022/07/17 01:52:25;;;;;;;33.85;30.95;;;;;;;17.07;100.00;101213.63;5021257;28;20038;-84
2022/07/17 01:55:11;;;;;;;34.03;31.25;;;;;;;17.90;100.00;101206.06;5017123;28;20058;-87
2022/07/17 01:57:38;;;;;;;31.50;28.58;;;;;;;17.89;100.00;101218.69;5008657;28;20042;-84
2022/07/17 02:02:46;;;;;;;32.35;29.75;;;;;;;17.81;100.00;101216.38;5065443;22;20053;-89
2022/07/17 02:05:13;;;;;;;33.70;30.80;;;;;;;17.76;100.00;101221.63;5031068;28;20132;-89
2022/07/17 02:07:44;;;;;;;33.33;30.63;;;;;;;17.89;100.00;101220.56;5025637;28;20474;-86
2022/07/17 02:10:13;;;;;;;31.83;29.13;;;;;;;17.84;100.00;101224.78;5034548;28;20042;-87
2022/07/17 02:12:42;;;;;;;32.72;30.23;;;;;;;17.94;100.00;101220.63;5035445;28;20045;-89
2022/07/17 02:15:17;;;;;;;33.17;30.30;;;;;;;17.61;100.00;101228.38;5036817;28;20382;-90
2022/07/17 02:17:45;;;;;;;33.45;30.25;;;;;;;17.83;100.00;101228.53;5025881;28;20049;-90
2022/07/17 02:20:13;;;;;;;36.40;33.63;;;;;;;17.84;100.00;101223.97;5030296;28;20074;-91
2022/07/17 02:22:42;;;;;;;39.92;36.83;;;;;;;17.98;100.00;101221.78;5027160;28;20048;-87
2022/07/17 02:25:10;;;;;;;35.55;32.42;;;;;;;18.02;100.00;101225.63;5025723;28;20042;-87
2022/07/17 02:27:37;;;;;;;38.47;34.90;;;;;;;17.68;100.00;101236.28;5023508;28;20536;-87
2022/07/17 02:30:05;;;;;;;34.00;31.02;;;;;;;18.77;100.00;101235.16;5028909;28;20045;-90
2022/07/17 02:32:32;;;;;;;31.98;29.50;;;;;;;19.45;100.00;101231.16;5026488;28;20042;-86
2022/07/17 02:34:59;;;;;;;29.67;27.88;;;;;;;20.17;100.00;101222.97;5025548;28;20056;-87
2022/07/17 02:37:26;;;;;;;32.42;29.83;;;;;;;20.43;100.00;101232.06;5027362;28;20472;-87
2022/07/17 02:39:54;;;;;;;30.02;28.42;;;;;;;21.23;100.00;101233.59;5020441;28;20084;-85
2022/07/17 02:42:24;;;;;;;30.38;28.38;;;;;;;21.16;100.00;101234.94;5028026;28;20068;-87
2022/07/17 02:44:52;;;;;;;29.98;27.80;;;;;;;20.93;100.00;101238.88;5024796;28;20068;-87
2022/07/17 02:47:23;;;;;;;31.20;29.35;;;;;;;19.80;100.00;101242.59;5032194;28;20132;-87
2022/07/17 02:49:50;;;;;;;30.00;28.00;;;;;;;18.77;100.00;101248.59;5033398;28;20046;-89
2022/07/17 02:52:17;;;;;;;31.50;29.30;;;;;;;18.53;100.00;101254.13;5031437;28;20132;-91
2022/07/17 02:54:44;;;;;;;29.67;27.33;;;;;;;18.22;100.00;101257.41;5032649;28;20041;-92
2022/07/17 02:57:14;;;;;;;32.60;30.08;;;;;;;18.02;100.00;101258.69;5030524;28;20133;-86
2022/07/17 02:59:41;;;;;;;30.75;28.25;;;;;;;17.79;100.00;101253.41;5026666;28;20072;-87
2022/07/17 03:02:40;;;;;;;33.83;31.10;;;;;;;17.61;100.00;101255.22;5032111;28;20071;-89
2022/07/17 03:05:37;;;;;;;33.47;31.02;;;;;;;17.59;100.00;101243.91;5030680;28;20046;-89
2022/07/17 03:08:30;;;;;;;34.10;31.42;;;;;;;17.87;100.00;101253.03;5034943;28;20053;-88
2022/07/17 03:10:59;;;;;;;33.53;30.73;;;;;;;18.32;100.00;101254.88;5015931;28;20054;-89
2022/07/17 03:13:40;;;;;;;32.08;29.67;;;;;;;18.29;100.00;101247.31;5022520;28;20045;-87
2022/07/17 03:16:19;;;;;;;28.00;25.73;;;;;;;18.91;100.00;101249.03;5029314;28;20073;-86
2022/07/17 03:18:51;;;;;;;28.33;25.92;;;;;;;18.62;100.00;101249.16;5032724;28;20037;-88
2022/07/17 03:21:36;;;;;;;29.52;27.23;;;;;;;18.72;100.00;101254.69;5034478;28;20049;-86
2022/07/17 03:24:06;;;;;;;28.13;25.92;;;;;;;19.03;100.00;101257.00;5032591;28;20053;-86
2022/07/17 03:26:55;;;;;;;27.55;25.45;;;;;;;18.76;100.00;101258.56;5035089;28;20547;-86
2022/07/17 03:29:29;;;;;;;28.45;26.33;;;;;;;19.20;100.00;101255.09;5030413;28;20045;-89
2022/07/17 03:32:15;;;;;;;27.00;24.98;;;;;;;18.83;100.00;101265.63;5022244;28;20046;-88
2022/07/17 03:34:42;;;;;;;27.92;25.92;;;;;;;18.97;100.00;101275.81;5028256;28;20064;-85
2022/07/17 03:37:10;;;;;;;28.25;25.88;;;;;;;19.33;100.00;101278.13;5021952;28;20057;-86
2022/07/17 03:39:48;;;;;;;28.30;26.30;;;;;;;19.95;100.00;101276.97;5015289;28;20042;-88
2022/07/17 03:42:27;;;;;;;28.10;26.08;;;;;;;20.16;100.00;101280.69;5033882;28;20050;-90
2022/07/17 03:45:02;;;;;;;28.63;26.30;;;;;;;20.18;100.00;101300.09;5034691;28;20056;-89
2022/07/17 03:47:49;;;;;;;26.27;24.38;;;;;;;20.56;100.00;101296.41;5034243;28;20046;-88
2022/07/17 03:50:27;;;;;;;27.42;25.42;;;;;;;20.60;100.00;101300.19;5025551;28;20053;-86
2022/07/17 03:53:14;;;;;;;27.10;24.85;;;;;;;20.68;100.00;101304.31;5033624;28;20053;-86
2022/07/17 03:55:43;;;;;;;28.27;26.00;;;;;;;20.86;100.00;101308.50;5028260;28;20046;-85
2022/07/17 03:58:16;;;;;;;27.38;25.08;;;;;;;20.63;100.00;101312.38;5024943;28;20049;-87
2022/07/17 04:00:45;;;;;;;27.35;25.30;;;;;;;20.67;100.00;101306.22;5033268;28;20067;-87
2022/07/17 04:03:35;;;;;;;26.65;24.45;;;;;;;20.83;100.00;101312.53;5034310;28;20453;-90
2022/07/17 04:06:12;;;;;;;27.25;25.20;;;;;;;20.78;100.00;101310.59;5017524;28;20041;-86
2022/07/17 04:08:42;;;;;;;29.05;26.20;;;;;;;20.84;100.00;101308.75;5030799;28;20053;-86
2022/07/17 04:11:32;;;;;;;28.00;25.95;;;;;;;20.96;100.00;101308.53;5033925;28;20049;-87
2022/07/17 04:14:26;;;;;;;26.73;24.73;;;;;;;20.90;100.00;101313.09;5026174;28;20057;-89
2022/07/17 04:16:54;;;;;;;27.15;25.27;;;;;;;21.10;100.00;101319.72;5014168;28;20061;-85
2022/07/17 04:19:35;;;;;;;27.50;25.27;;;;;;;21.30;100.00;101322.50;5025179;28;20046;-88
2022/07/17 04:22:04;;;;;;;26.90;24.90;;;;;;;21.31;100.00;101318.75;5033417;28;20046;-86
2022/07/17 04:24:56;;;;;;;25.52;23.73;;;;;;;21.50;100.00;101327.22;5020424;28;20057;-88
2022/07/17 04:27:23;;;;;;;26.42;23.90;;;;;;;21.49;100.00;101323.72;5031409;28;20080;-86
2022/07/17 04:29:52;;;;;;;26.20;24.27;;;;;;;21.63;100.00;101337.53;5025712;28;20054;-88
2022/07/17 04:32:21;;;;;;;26.45;24.23;;;;;;;21.09;100.00;101336.97;5030853;28;20045;-85
2022/07/17 04:34:52;;;;;;;27.00;24.98;;;;;;;21.57;100.00;101343.19;5029643;28;20111;-89
2022/07/17 04:37:21;;;;;;;27.95;25.38;;;;;;;21.49;100.00;101339.13;5030941;28;20060;-86
2022/07/17 04:40:21;;;;;;;28.92;26.60;;;;;;;21.59;100.00;101335.63;5035416;28;20057;-88
2022/07/17 04:43:06;;;;;;;25.92;24.02;;;;;;;21.35;100.00;101343.34;5016052;28;20050;-88
2022/07/17 04:46:00;;;;;;;26.73;24.65;;;;;;;21.43;100.00;101350.97;5034609;28;20107;-87
2022/07/17 04:48:31;;;;;;;26.10;24.10;;;;;;;21.37;100.00;101355.53;5038577;28;20056;-86
2022/07/17 04:50:58;;;;;;;26.13;24.23;;;;;;;21.42;100.00;101360.13;5037946;28;20057;-88
2022/07/17 04:53:37;;;;;;;26.30;24.17;;;;;;;21.79;100.00;101354.63;5040802;28;20046;-89
2022/07/17 04:56:26;;;;;;;26.30;24.30;;;;;;;21.92;100.00;101364.13;5038646;28;20049;-85
2022/07/17 04:59:09;;;;;;;27.65;25.55;;;;;;;21.54;100.00;101360.75;5038500;28;20049;-90
2022/07/17 05:01:35;;;;;;;26.13;23.90;;;;;;;21.84;100.00;101361.94;5034840;28;20481;-88
2022/07/17 05:04:22;;;;;;;25.88;23.88;;;;;;;21.99;100.00;101364.69;5038084;28;20460;-88
2022/07/17 05:07:04;;;;;;;27.10;25.10;;;;;;;21.91;100.00;101368.75;5025746;28;20045;-89
2022/07/17 05:09:32;;;;;;;26.90;24.58;;;;;;;22.00;100.00;101374.44;5038035;28;20478;-84
2022/07/17 05:12:01;;;;;;;27.80;25.20;;;;;;;22.52;100.00;101376.19;5037900;28;20409;-85
2022/07/17 05:14:45;;;;;;;26.05;23.98;;;;;;;22.24;100.00;101373.97;5039398;28;20053;-85
2022/07/17 05:17:19;;;;;;;26.73;24.75;;;;;;;22.39;100.00;101382.94;5040699;28;20057;-88
2022/07/17 05:19:56;;;;;;;26.67;24.52;;;;;;;22.21;100.00;101377.19;5033408;28;20100;-88
2022/07/17 05:23:05;;;;;;;27.60;24.58;;;;;;;22.25;100.00;101378.31;5036187;28;20124;-88
2022/07/17 05:25:48;;;;;;;26.10;24.08;;;;;;;22.43;100.00;101394.03;5027272;28;20462;-87
2022/07/17 05:28:18;;;;;;;26.60;24.45;;;;;;;22.74;100.00;101394.84;5037272;28;20049;-88
2022/07/17 05:30:46;;;;;;;26.27;24.17;;;;;;;22.53;100.00;101407.56;5034279;28;20133;-84
2022/07/17 05:33:13;;;;;;;25.60;23.65;;;;;;;22.63;100.00;101410.28;5020360;28;20046;-85
2022/07/17 05:36:15;;;;;;;26.00;24.08;;;;;;;22.57;100.00;101410.53;5032090;28;20053;-85
2022/07/17 05:38:48;;;;;;;26.37;24.13;;;;;;;22.84;100.00;101421.09;5035525;28;20052;-84
2022/07/17 05:41:16;;;;;;;26.63;24.63;;;;;;;22.74;100.00;101413.81;5037789;28;20300;-85
2022/07/17 05:43:46;;;;;;;27.25;25.27;;;;;;;22.71;100.00;101419.75;5037286;28;20042;-86
2022/07/17 05:46:22;;;;;;;27.83;25.75;;;;;;;23.04;100.00;101423.84;5027928;28;20109;-87
2022/07/17 05:48:51;;;;;;;26.52;24.58;;;;;;;22.20;100.00;101430.50;5038736;28;20045;-88
2022/07/17 05:51:53;;;;;;;27.63;25.63;;;;;;;22.11;100.00;101438.28;5023912;28;20049;-88
2022/07/17 05:54:22;;;;;;;27.02;24.92;;;;;;;23.18;100.00;101426.00;5037909;28;20049;-85
2022/07/17 05:57:01;;;;;;;27.17;24.88;;;;;;;24.12;100.00;101432.50;5036558;28;20053;-89
2022/07/17 05:59:42;;;;;;;27.73;25.75;;;;;;;23.49;100.00;101433.00;5035945;28;20107;-90
2022/07/17 06:02:22;;;;;;;26.75;24.48;;;;;;;23.81;100.00;101428.28;5033778;28;20057;-84
2022/07/17 06:05:04;;;;;;;29.05;26.48;;;;;;;23.07;100.00;101430.63;5032048;28;20060;-85
2022/07/17 06:07:34;;;;;;;;;;;;;;;23.11;100.00;101433.59;5036541;28;20053;-85
2022/07/17 06:10:31;;;;;;;27.15;25.35;;;;;;;23.37;100.00;101442.50;5036085;28;19921;-86
2022/07/17 06:13:00;;;;;;;27.15;25.02;;;;;;;23.05;100.00;101441.72;5034273;28;20387;-85
2022/07/17 06:15:55;;;;;;;28.42;26.13;;;;;;;23.60;100.00;101441.91;5021949;28;20057;-90
2022/07/17 06:18:35;;;;;;;28.33;25.77;;;;;;;23.50;100.00;101444.63;5026145;28;20128;-86
2022/07/17 06:21:09;;;;;;;28.50;26.15;;;;;;;23.88;100.00;101426.91;5034785;28;20042;-85
2022/07/17 06:23:36;;;;;;;28.20;25.88;;;;;;;23.40;100.00;101431.13;5037826;28;20049;-84
2022/07/17 06:26:08;;;;;;;28.15;25.67;;;;;;;23.26;100.00;101422.72;5031088;28;20053;-87
2022/07/17 06:28:35;;;;;;;;;;;;;;;23.38;100.00;101420.53;5037434;28;20107;-85
2022/07/17 06:31:14;;;;;;;26.95;24.67;;;;;;;23.76;100.00;101424.53;5038633;28;19932;-90
2022/07/17 06:33:52;;;;;;;27.50;25.38;;;;;;;23.81;100.00;101420.16;5023180;28;20045;-86
2022/07/17 06:36:32;;;;;;;26.85;24.65;;;;;;;24.00;100.00;101416.56;5038028;28;20045;-89
2022/07/17 06:39:00;;;;;;;27.42;25.23;;;;;;;24.49;100.00;101427.69;5035373;28;20064;-85
2022/07/17 06:41:46;;;;;;;27.25;25.05;;;;;;;24.61;100.00;101423.53;5029016;28;20064;-89
2022/07/17 06:44:13;;;;;;;29.77;27.25;;;;;;;24.67;100.00;101424.31;5039478;28;20056;-90
2022/07/17 06:46:45;;;;;;;28.73;26.33;;;;;;;24.64;100.00;101425.69;5040128;28;20137;-90
2022/07/17 06:49:12;;;;;;;28.83;26.60;;;;;;;24.38;100.00;101425.00;5033433;28;20046;-90
2022/07/17 06:51:41;;;;;;;28.02;25.52;;;;;;;24.45;100.00;101432.88;5040692;28;20484;-90
2022/07/17 06:54:25;;;;;;;28.63;26.13;;;;;;;25.11;100.00;101437.78;5025878;28;20046;-86
2022/07/17 06:56:54;;;;;;;28.25;25.60;;;;;;;25.11;100.00;101436.94;5016719;28;20053;-86
2022/07/17 06:59:22;;;;;;;28.35;25.83;;;;;;;24.58;100.00;101445.00;5034370;28;20049;-88
2022/07/17 07:01:58;;;;;;;29.48;26.48;;;;;;;25.03;100.00;101440.31;5031754;28;20060;-85
2022/07/17 07:04:28;;;;;;;27.77;25.35;;;;;;;25.61;100.00;101432.13;5028625;28;20057;-85
2022/07/17 07:06:56;;;;;;;28.52;26.33;;;;;;;25.35;100.00;101437.81;5031366;28;20041;-84
2022/07/17 07:09:28;;;;;;;27.70;25.50;;;;;;;25.88;100.00;101425.31;5035411;28;20049;-85
2022/07/17 07:12:00;;;;;;;28.67;26.33;;;;;;;26.24;100.00;101422.91;5034304;28;20124;-89
2022/07/17 07:14:39;;;;;;;;;;;;;;;26.79;100.00;101422.38;5036771;28;20064;-88
2022/07/17 07:17:06;;;;;;;26.95;24.73;;;;;;;26.76;100.00;101422.97;5035609;28;20364;-82
2022/07/17 07:19:44;;;;;;;28.27;25.88;;;;;;;26.62;100.00;101422.91;5028794;28;20053;-86
2022/07/17 07:22:20;;;;;;;27.67;25.38;;;;;;;26.86;100.00;101420.84;5025004;28;20116;-90
2022/07/17 07:24:49;;;;;;;28.30;25.80;;;;;;;26.80;100.00;101426.69;5018603;28;20064;-87
2022/07/17 07:27:18;;;;;;;27.83;25.25;;;;;;;26.95;100.00;101420.97;5033749;28;20052;-84
2022/07/17 07:29:47;;;;;;;28.15;25.85;;;;;;;27.12;95.71;101423.16;5036267;28;20045;-87
2022/07/17 07:32:21;;;;;;;29.05;26.38;;;;;;;27.17;96.61;101418.44;5023650;28;20053;-88
2022/07/17 07:34:50;;;;;;;27.70;25.40;;;;;;;27.60;90.67;101417.34;5032112;28;20057;-85
2022/07/17 07:37:26;;;;;;;28.65;26.05;;;;;;;27.43;89.15;101411.69;5022693;28;20050;-85
2022/07/17 07:40:00;;;;;;;28.33;25.88;;;;;;;27.75;90.94;101414.31;5015415;28;20050;-86
2022/07/17 07:42:41;;;;;;;27.80;25.33;;;;;;;27.81;81.95;101415.84;5015933;28;20046;-85
2022/07/17 07:45:10;;;;;;;27.67;25.23;;;;;;;27.43;78.28;101417.94;5029028;28;20041;-85
2022/07/17 07:47:54;;;;;;;26.65;24.63;;;;;;;27.16;82.43;101426.91;5034593;28;20050;-85
2022/07/17 07:50:24;;;;;;;27.13;24.80;;;;;;;27.49;83.22;101418.66;5034672;28;20056;-88
2022/07/17 07:52:53;;;;;;;26.42;24.13;;;;;;;27.15;71.26;101419.84;5027428;28;20045;-88
2022/07/17 07:55:22;;;;;;;27.08;24.88;;;;;;;27.64;85.01;101418.34;5034480;28;20042;-88
2022/07/17 07:58:02;;;;;;;27.33;24.90;;;;;;;27.50;70.44;101421.06;5034301;28;20049;-88
2022/07/17 08:00:47;;;;;;;27.23;25.23;;;;;;;27.36;66.48;101418.34;5026625;28;20053;-88
2022/07/17 08:03:23;;;;;;;28.35;25.80;;;;;;;27.63;66.28;101420.28;5015032;28;20054;-88
2022/07/17 08:05:56;;;;;;;27.95;25.70;;;;;;;28.26;64.94;101421.41;5017143;28;20053;-87
2022/07/17 08:08:26;;;;;;;28.15;25.88;;;;;;;28.77;66.30;101419.38;5015927;28;20053;-86
2022/07/17 08:10:55;;;;;;;27.20;25.15;;;;;;;28.76;63.98;101421.31;5015553;28;20065;-86
2022/07/17 08:13:24;;;;;;;27.70;25.63;;;;;;;29.38;57.66;101427.91;5014850;28;20120;-86
2022/07/17 08:15:53;;;;;;;27.08;25.05;;;;;;;29.51;54.92;101432.50;5015141;28;20054;-85
2022/07/17 08:18:29;;;;;;;27.38;25.27;;;;;;;29.41;62.39;101422.66;5015294;28;20054;-89
2022/07/17 08:20:56;;;;;;;26.85;24.88;;;;;;;29.22;63.00;101427.53;5014764;28;20088;-86
2022/07/17 08:23:31;;;;;;;26.77;24.77;;;;;;;28.79;62.04;101428.09;5013534;28;20045;-88
2022/07/17 08:25:59;;;;;;;28.88;26.15;;;;;;;28.96;64.46;101424.66;5014258;28;20056;-85
2022/07/17 08:28:32;;;;;;;26.52;24.55;;;;;;;28.98;65.46;101434.13;5017164;28;20049;-86
2022/07/17 08:31:14;;;;;;;27.45;25.10;;;;;;;29.29;53.84;101432.56;5006304;28;20405;-87
2022/07/17 08:33:42;;;;;;;27.13;25.13;;;;;;;29.59;56.61;101431.72;5015021;28;20478;-85
2022/07/17 08:36:08;;;;;;;27.42;25.42;;;;;;;29.78;50.74;101425.19;5012653;28;20046;-85
2022/07/17 08:38:35;;;;;;;29.05;26.55;;;;;;;29.94;48.07;101426.34;5011788;28;20049;-87
2022/07/17 08:41:04;;;;;;;28.35;26.13;;;;;;;29.78;48.77;101430.69;5010488;28;20046;-86
2022/07/17 08:43:42;;;;;;;27.48;25.38;;;;;;;30.06;50.34;101429.25;5016557;28;20057;-85
2022/07/17 08:46:24;;;;;;;28.45;26.27;;;;;;;30.21;44.10;101419.00;5012905;28;20078;-85
2022/07/17 08:48:58;;;;;;;27.52;25.60;;;;;;;29.73;47.77;101415.19;5014397;28;20128;-86
2022/07/17 08:51:32;;;;;;;28.30;26.30;;;;;;;30.50;44.27;101410.09;5013483;28;20077;-86
2022/07/17 08:53:59;;;;;;;27.17;25.17;;;;;;;30.79;42.68;101415.72;5014740;28;20391;-84
2022/07/17 08:56:31;;;;;;;27.02;24.92;;;;;;;30.92;43.95;101405.69;5009088;28;20050;-86
2022/07/17 08:59:10;;;;;;;28.02;25.83;;;;;;;31.11;43.57;101412.75;5013739;28;20042;-88
2022/07/17 09:01:37;;;;;;;28.00;25.40;;;;;;;31.01;41.58;101403.72;5018889;28;20057;-84
2022/07/17 09:04:13;;;;;;;27.67;25.38;;;;;;;30.10;44.03;101402.81;5021155;28;20109;-87
2022/07/17 09:06:42;;;;;;;27.83;25.42;;;;;;;30.17;49.43;101410.59;5024488;28;20469;-83
2022/07/17 09:09:11;;;;;;;29.50;27.40;;;;;;;29.79;48.59;101408.44;5023491;28;20056;-86
2022/07/17 09:11:47;;;;;;;29.27;26.77;;;;;;;29.91;47.17;101405.09;5019401;28;20050;-87
2022/07/17 09:14:24;;;;;;;29.92;27.83;;;;;;;30.51;47.30;101406.25;5016508;28;20068;-87
2022/07/17 09:16:55;;;;;;;28.92;26.83;;;;;;;30.24;51.47;101402.72;5029027;28;20425;-86
2022/07/17 09:19:38;;;;;;;27.83;25.45;;;;;;;29.71;55.27;101408.41;5019822;28;20050;-85
2022/07/17 09:22:10;;;;;;;28.42;26.33;;;;;;;29.84;50.59;101399.28;5022715;28;20049;-85
2022/07/17 09:24:42;;;;;;;28.25;25.92;;;;;;;30.29;47.64;101399.81;5022906;28;20056;-85
2022/07/17 09:27:13;;;;;;;28.35;26.13;;;;;;;29.88;48.53;101389.28;5024431;28;20132;-86
2022/07/17 09:29:56;;;;;;;29.80;27.60;;;;;;;30.42;47.99;101389.81;5032629;28;20513;-89
2022/07/17 09:32:27;;;;;;;28.58;26.38;;;;;;;31.13;48.41;101385.78;5023857;28;20058;-86
2022/07/17 09:35:04;;;;;;;27.88;25.58;;;;;;;31.15;45.07;101380.78;5030236;28;20107;-87
2022/07/17 09:38:01;;;;;;;30.10;27.67;;;;;;;30.57;44.31;101383.81;5035904;28;20052;-88
2022/07/17 09:43:39;;;;;;;27.90;25.52;;;;;;;30.41;51.11;101371.78;5031426;28;20139;-87
2022/07/17 09:46:08;;;;;;;27.80;25.60;;;;;;;30.91;44.97;101378.59;5027332;28;20167;-85
2022/07/17 09:48:41;;;;;;;28.67;26.27;;;;;;;30.58;52.18;101379.94;5031825;28;20042;-85
2022/07/17 09:51:18;;;;;;;28.65;26.25;;;;;;;30.71;41.81;101372.69;5030958;28;20049;-85
2022/07/17 09:54:00;;;;;;;29.10;26.73;;;;;;;31.32;41.96;101383.44;5029529;28;20053;-87
2022/07/17 09:56:58;;;;;;;32.60;29.60;;;;;;;30.30;49.46;101386.91;5026414;28;20068;-87
2022/07/17 09:59:35;;;;;;;29.05;26.58;;;;;;;31.06;41.52;101371.78;5031149;28;20389;-85
2022/07/17 10:02:05;;;;;;;28.15;25.67;;;;;;;30.79;39.85;101371.06;5025009;28;20064;-85
2022/07/17 10:04:36;;;;;;;26.77;24.30;;;;;;;31.18;39.67;101361.72;5017765;28;20054;-85
2022/07/17 10:07:05;;;;;;;32.65;30.05;;;;;;;31.30;42.25;101369.25;5024794;28;20081;-86
2022/07/17 10:09:40;;;;;;;28.27;25.88;;;;;;;29.95;51.26;101361.44;5030141;28;20441;-89
2022/07/17 10:12:34;;;;;;;29.02;26.63;;;;;;;31.07;37.18;101359.66;5024629;28;20115;-85
2022/07/17 10:15:16;;;;;;;29.10;26.85;;;;;;;30.91;46.17;101351.97;4950347;29;20054;-87
2022/07/17 10:17:44;;;;;;;27.75;25.25;;;;;;;29.99;44.97;101349.53;4961277;28;20049;-85
2022/07/17 10:20:13;;;;;;;28.42;26.13;;;;;;;31.65;37.27;101350.66;5023994;28;20060;-85
2022/07/17 10:22:58;;;;;;;27.95;25.45;;;;;;;30.93;37.08;101349.72;5031909;28;20494;-88
2022/07/17 10:25:26;;;;;;;25.60;23.50;;;;;;;31.47;37.75;101347.22;5024166;28;20049;-85
2022/07/17 10:27:56;;;;;;;28.13;25.42;;;;;;;31.17;35.92;101343.66;5036063;28;20053;-83
2022/07/17 10:30:27;;;;;;;27.63;25.20;;;;;;;31.93;34.70;101334.47;5019462;28;20045;-85
2022/07/17 10:33:17;;;;;;;27.45;24.85;;;;;;;31.99;39.91;101340.56;5030007;28;20064;-87
2022/07/17 10:35:48;;;;;;;26.95;24.55;;;;;;;31.43;44.28;101338.03;5023322;28;20058;-88
2022/07/17 10:38:21;;;;;;;27.60;25.47;;;;;;;31.21;37.46;101332.81;5031067;28;20060;-87
2022/07/17 10:41:00;;;;;;;26.35;23.65;;;;;;;31.35;43.79;101332.59;5024759;28;20045;-84
2022/07/17 10:43:40;;;;;;;25.90;23.52;;;;;;;31.63;33.68;101325.47;5024638;28;20096;-86
2022/07/17 10:46:07;;;;;;;26.77;24.58;;;;;;;31.37;35.57;101324.84;5026160;28;20057;-86
2022/07/17 10:48:40;;;;;;;26.20;24.08;;;;;;;31.75;41.19;101327.47;5030002;28;20464;-84
2022/07/17 10:51:07;;;;;;;27.38;25.38;;;;;;;31.32;43.43;101306.59;5034620;28;20041;-85
2022/07/17 10:53:36;;;;;;;27.67;25.25;;;;;;;32.02;31.14;101303.38;5026785;28;20076;-84
2022/07/17 10:56:14;;;;;;;28.48;26.27;;;;;;;32.43;40.89;101307.16;5021386;28;20406;-86
2022/07/17 10:58:45;;;;;;;28.90;27.00;;;;;;;33.29;31.48;101308.06;5025406;28;20141;-87
2022/07/17 11:01:14;;;;;;;29.40;27.27;;;;;;;32.42;31.67;101303.63;5026897;28;20049;-87
2022/07/17 11:03:51;;;;;;;28.70;26.60;;;;;;;33.00;36.58;101307.16;5033815;28;20041;-87
2022/07/17 11:06:21;;;;;;;28.60;26.30;;;;;;;32.49;31.37;101298.38;5026817;28;20112;-88
2022/07/17 11:08:51;;;;;;;29.20;26.80;;;;;;;32.39;37.82;101298.78;5027406;28;20050;-86
2022/07/17 11:11:20;;;;;;;29.23;26.80;;;;;;;32.28;33.79;101301.16;5027725;28;20111;-85
2022/07/17 11:13:48;;;;;;;28.42;25.95;;;;;;;33.25;30.28;101294.19;5031691;28;20441;-86
2022/07/17 11:16:25;;;;;;;26.92;24.73;;;;;;;33.60;29.19;101290.94;5031479;28;20048;-87
2022/07/17 11:19:00;;;;;;;29.65;27.33;;;;;;;32.84;31.33;101298.78;5019324;28;20557;-85
2022/07/17 11:21:46;;;;;;;29.77;27.45;;;;;;;33.10;31.35;101286.63;5018147;28;20124;-87
2022/07/17 11:24:26;;;;;;;29.88;27.52;;;;;;;33.94;35.35;101270.25;5036111;28;20065;-86
2022/07/17 11:26:54;;;;;;;31.02;28.65;;;;;;;33.69;28.99;101264.06;5035977;28;20049;-87
2022/07/17 11:29:23;;;;;;;27.17;24.98;;;;;;;32.54;33.26;101276.19;5031002;28;20448;-82
2022/07/17 11:31:56;;;;;;;26.33;24.23;;;;;;;33.10;32.83;101275.63;5030946;28;20053;-86
2022/07/17 11:34:27;;;;;;;26.83;24.55;;;;;;;33.58;33.67;101268.44;5035680;28;20081;-86
2022/07/17 11:37:01;;;;;;;26.23;24.02;;;;;;;32.66;32.91;101272.63;5025021;28;20058;-86
2022/07/17 11:39:39;;;;;;;28.40;26.00;;;;;;;32.83;38.35;101263.34;5016223;28;20046;-85
2022/07/17 11:42:33;;;;;;;27.95;25.92;;;;;;;32.79;32.32;101268.75;5032248;28;20460;-83
2022/07/17 11:45:12;;;;;;;27.15;24.88;;;;;;;32.27;30.27;101261.09;5031772;28;20057;-85
2022/07/17 11:47:39;;;;;;;28.63;26.33;;;;;;;32.52;39.51;101255.66;5021687;28;20055;-86
2022/07/17 11:50:15;;;;;;;30.73;28.35;;;;;;;31.86;37.30;101254.56;5017599;28;20050;-86